createdAt,value
2023-05-23T00:00:15.432Z,7.00
2023-05-23T00:01:18.759Z,6.60
2023-05-23T00:02:21.617Z,6.50
2023-05-23T00:03:23.921Z,7.40
2023-05-23T00:04:27.346Z,7.85
2023-05-23T00:05:29.387Z,7.95
2023-05-23T00:06:32.530Z,8.05
2023-05-23T00:07:34.822Z,7.70
2023-05-23T00:08:37.651Z,7.72
2023-05-23T00:09:39.533Z,7.07
2023-05-23T00:10:42.347Z,7.00
2023-05-23T00:11:45.213Z,7.65
2023-05-23T00:12:48.368Z,7.47
2023-05-23T00:13:51.276Z,7.90
2023-05-23T00:14:54.493Z,8.05
2023-05-23T00:15:56.387Z,7.82
2023-05-23T00:17:01.618Z,7.18
2023-05-23T00:18:03.652Z,7.35
2023-05-23T00:19:06.520Z,7.18
2023-05-23T00:20:11.856Z,7.53
2023-05-23T00:21:14.703Z,7.88
2023-05-23T00:22:17.461Z,8.30
2023-05-23T00:23:21.288Z,7.78
2023-05-23T00:24:23.157Z,6.80
2023-05-23T00:25:33.940Z,6.95
2023-05-23T00:26:36.288Z,8.23
2023-05-23T00:27:39.302Z,7.65
2023-05-23T00:28:41.159Z,8.45
2023-05-23T00:29:43.998Z,7.88
2023-05-23T00:30:45.907Z,7.82
2023-05-23T00:31:48.803Z,7.82
2023-05-23T00:32:54.468Z,7.63
2023-05-23T00:33:57.357Z,7.88
2023-05-23T00:34:59.227Z,7.13
2023-05-23T00:36:02.044Z,6.22
2023-05-23T00:37:05.576Z,7.78
2023-05-23T00:38:08.796Z,7.88
2023-05-23T00:39:19.000Z,8.13
2023-05-23T00:40:22.144Z,7.65
2023-05-23T00:41:25.956Z,6.85
2023-05-23T00:42:28.781Z,8.23
2023-05-23T00:43:31.523Z,7.32
2023-05-23T00:44:34.404Z,7.00
2023-05-23T00:45:36.456Z,7.18
2023-05-23T00:46:39.701Z,7.63
2023-05-23T00:47:42.413Z,7.03
2023-05-23T00:48:46.657Z,7.80
2023-05-23T00:49:48.728Z,7.68
2023-05-23T00:50:51.678Z,7.72
2023-05-23T00:51:53.749Z,7.40
2023-05-23T00:52:58.645Z,6.65
2023-05-23T00:54:01.902Z,7.78
2023-05-23T00:55:05.938Z,7.97
2023-05-23T00:56:08.164Z,7.60
2023-05-23T00:57:11.260Z,7.70
2023-05-23T00:58:15.223Z,7.53
2023-05-23T00:59:18.301Z,7.93
2023-05-23T01:00:20.596Z,8.30
2023-05-23T01:01:24.261Z,7.85
2023-05-23T01:02:26.237Z,7.95
2023-05-23T01:03:30.320Z,8.25
2023-05-23T01:04:34.114Z,8.80
2023-05-23T01:05:36.937Z,8.77
2023-05-23T01:06:38.856Z,7.60
2023-05-23T01:07:41.767Z,7.70
2023-05-23T01:08:44.818Z,7.88
2023-05-23T01:09:47.431Z,7.80
2023-05-23T01:10:51.199Z,7.82
2023-05-23T01:12:14.258Z,7.95
2023-05-23T01:13:24.971Z,7.50
2023-05-23T01:14:32.646Z,7.55
2023-05-23T01:15:43.365Z,7.95
2023-05-23T01:16:50.424Z,7.70
2023-05-23T01:18:00.397Z,7.25
2023-05-23T01:19:16.485Z,7.43
2023-05-23T01:20:25.146Z,8.77
2023-05-23T01:21:27.635Z,8.13
2023-05-23T01:23:02.036Z,8.18
2023-05-23T01:24:29.396Z,7.95
2023-05-23T01:25:53.689Z,8.15
2023-05-23T01:27:07.994Z,7.53
2023-05-23T01:28:16.358Z,8.23
2023-05-23T01:29:24.375Z,7.75
2023-05-23T01:30:31.672Z,7.47
2023-05-23T01:31:36.721Z,7.80
2023-05-23T01:32:41.023Z,7.75
2023-05-23T01:33:44.035Z,8.60
2023-05-23T01:34:47.922Z,7.93
2023-05-23T01:35:50.343Z,7.60
2023-05-23T01:36:55.890Z,7.60
2023-05-23T01:37:57.789Z,7.85
2023-05-23T01:39:00.614Z,7.90
2023-05-23T01:40:02.613Z,8.18
2023-05-23T01:41:05.441Z,8.80
2023-05-23T01:42:08.493Z,7.95
2023-05-23T01:43:12.859Z,8.07
2023-05-23T01:44:14.865Z,8.48
2023-05-23T01:45:18.894Z,7.78
2023-05-23T01:46:22.061Z,8.07
2023-05-23T01:47:25.089Z,7.80
2023-05-23T01:48:28.918Z,8.38
2023-05-23T01:49:32.756Z,8.93
2023-05-23T01:50:34.954Z,8.15
2023-05-23T01:51:37.984Z,8.18
2023-05-23T01:52:40.050Z,7.57
2023-05-23T01:53:44.119Z,8.43
2023-05-23T01:54:49.063Z,9.10
2023-05-23T01:55:53.429Z,7.47
2023-05-23T01:56:57.276Z,8.48
2023-05-23T01:58:01.554Z,7.65
2023-05-23T01:59:04.855Z,8.35
2023-05-23T02:00:10.932Z,8.20
2023-05-23T02:01:12.947Z,8.48
2023-05-23T02:02:15.940Z,8.88
2023-05-23T02:03:18.397Z,8.50
2023-05-23T02:04:22.506Z,8.38
2023-05-23T02:05:24.677Z,8.25
2023-05-23T02:06:27.800Z,7.63
2023-05-23T02:07:29.628Z,8.85
2023-05-23T02:08:32.420Z,8.75
2023-05-23T02:09:34.327Z,8.68
2023-05-23T02:10:37.190Z,8.57
2023-05-23T02:11:39.024Z,9.02
2023-05-23T02:12:41.879Z,9.07
2023-05-23T02:13:43.783Z,9.00
2023-05-23T02:14:47.955Z,8.70
2023-05-23T02:15:49.894Z,7.95
2023-05-23T02:16:52.976Z,8.45
2023-05-23T02:17:54.926Z,9.30
2023-05-23T02:18:58.555Z,8.95
2023-05-23T02:20:00.701Z,9.40
2023-05-23T02:21:03.552Z,8.45
2023-05-23T02:22:05.646Z,8.32
2023-05-23T02:23:09.236Z,9.00
2023-05-23T02:24:11.498Z,8.85
2023-05-23T02:25:15.712Z,8.23
2023-05-23T02:26:17.946Z,8.60
2023-05-23T02:27:21.011Z,8.25
2023-05-23T02:28:22.965Z,8.30
2023-05-23T02:29:25.892Z,9.75
2023-05-23T02:30:29.311Z,9.05
2023-05-23T02:31:32.284Z,10.13
2023-05-23T02:32:34.211Z,8.68
2023-05-23T02:33:37.133Z,8.30
2023-05-23T02:34:39.130Z,9.32
2023-05-23T02:35:42.355Z,9.20
2023-05-23T02:36:44.370Z,9.63
2023-05-23T02:37:47.203Z,9.10
2023-05-23T02:38:49.049Z,10.05
2023-05-23T02:39:51.858Z,8.40
2023-05-23T02:40:53.947Z,9.85
2023-05-23T02:41:56.837Z,9.38
2023-05-23T02:42:58.708Z,8.48
2023-05-23T02:44:01.640Z,9.38
2023-05-23T02:45:03.820Z,8.30
2023-05-23T02:46:08.098Z,9.40
2023-05-23T02:47:10.718Z,8.63
2023-05-23T02:48:13.517Z,9.15
2023-05-23T02:49:15.570Z,8.45
2023-05-23T02:50:18.558Z,9.40
2023-05-23T02:51:20.795Z,9.50
2023-05-23T02:52:23.665Z,10.10
2023-05-23T02:53:25.487Z,9.23
2023-05-23T02:54:28.282Z,8.77
2023-05-23T02:55:31.821Z,9.18
2023-05-23T02:56:34.675Z,9.90
2023-05-23T02:57:36.573Z,9.02
2023-05-23T02:58:39.975Z,8.93
2023-05-23T02:59:41.970Z,9.50
2023-05-23T03:00:44.855Z,9.30
2023-05-23T03:01:48.137Z,9.23
2023-05-23T03:02:51.255Z,10.45
2023-05-23T03:03:53.227Z,9.13
2023-05-23T03:04:57.345Z,9.90
2023-05-23T03:05:59.600Z,8.30
2023-05-23T03:07:05.451Z,8.48
2023-05-23T03:08:09.955Z,8.70
2023-05-23T03:09:11.819Z,9.70
2023-05-23T03:10:14.642Z,10.10
2023-05-23T03:11:16.543Z,8.60
2023-05-23T03:12:19.334Z,8.70
2023-05-23T03:13:21.171Z,9.32
2023-05-23T03:14:24.155Z,9.10
2023-05-23T03:15:25.984Z,9.20
2023-05-23T03:16:28.908Z,9.40
2023-05-23T03:17:32.194Z,9.93
2023-05-23T03:18:35.004Z,10.05
2023-05-23T03:19:37.501Z,9.63
2023-05-23T03:20:40.522Z,8.48
2023-05-23T03:21:42.389Z,10.00
2023-05-23T03:22:45.698Z,8.68
2023-05-23T03:23:47.705Z,9.40
2023-05-23T03:24:50.561Z,9.68
2023-05-23T03:25:52.485Z,10.60
2023-05-23T03:26:55.873Z,9.57
2023-05-23T03:27:58.117Z,9.07
2023-05-23T03:29:01.085Z,10.55
2023-05-23T03:30:03.826Z,9.60
2023-05-23T03:31:06.694Z,10.57
2023-05-23T03:32:08.612Z,10.10
2023-05-23T03:33:12.926Z,9.43
2023-05-23T03:34:14.872Z,9.13
2023-05-23T03:35:17.952Z,9.48
2023-05-23T03:36:21.845Z,10.45
2023-05-23T03:37:23.688Z,9.40
2023-05-23T03:38:27.044Z,9.13
2023-05-23T03:39:28.912Z,10.00
2023-05-23T03:40:31.738Z,9.10
2023-05-23T03:41:33.619Z,9.27
2023-05-23T03:42:38.052Z,10.45
2023-05-23T03:43:39.944Z,9.55
2023-05-23T03:44:42.726Z,10.65
2023-05-23T03:45:44.974Z,10.85
2023-05-23T03:46:48.055Z,9.07
2023-05-23T03:47:49.896Z,9.10
2023-05-23T03:48:54.067Z,9.57
2023-05-23T03:49:55.936Z,10.68
2023-05-23T03:50:58.742Z,9.63
2023-05-23T03:52:00.608Z,8.57
2023-05-23T03:53:03.419Z,9.75
2023-05-23T03:54:05.595Z,10.18
2023-05-23T03:55:09.367Z,9.43
2023-05-23T03:56:11.227Z,9.57
2023-05-23T03:57:14.107Z,11.05
2023-05-23T03:58:16.223Z,8.70
2023-05-23T03:59:19.630Z,9.60
2023-05-23T04:00:21.606Z,9.80
2023-05-23T04:01:24.910Z,10.43
2023-05-23T04:02:26.882Z,10.43
2023-05-23T04:03:32.573Z,10.95
2023-05-23T04:04:36.120Z,10.50
2023-05-23T04:05:39.376Z,9.70
2023-05-23T04:06:41.555Z,9.85
2023-05-23T04:07:44.974Z,9.15
2023-05-23T04:08:46.804Z,9.65
2023-05-23T04:09:49.604Z,10.23
2023-05-23T04:10:51.447Z,9.10
2023-05-23T04:11:54.246Z,10.07
2023-05-23T04:12:57.146Z,9.68
2023-05-23T04:13:59.943Z,9.63
2023-05-23T04:15:02.399Z,10.52
2023-05-23T04:16:05.802Z,9.93
2023-05-23T04:17:09.250Z,10.50
2023-05-23T04:18:12.167Z,9.75
2023-05-23T04:19:14.014Z,9.40
2023-05-23T04:20:18.504Z,9.35
2023-05-23T04:21:20.312Z,10.38
2023-05-23T04:22:23.124Z,10.13
2023-05-23T04:23:25.001Z,10.43
2023-05-23T04:24:27.785Z,10.75
2023-05-23T04:25:29.638Z,9.48
2023-05-23T04:26:33.014Z,8.93
2023-05-23T04:27:34.950Z,9.23
2023-05-23T04:28:39.883Z,9.82
2023-05-23T04:29:41.819Z,9.73
2023-05-23T04:30:44.783Z,9.63
2023-05-23T04:31:46.786Z,10.40
2023-05-23T04:32:49.728Z,10.55
2023-05-23T04:33:52.403Z,10.55
2023-05-23T04:34:56.760Z,10.07
2023-05-23T04:36:00.746Z,9.90
2023-05-23T04:37:03.709Z,9.57
2023-05-23T04:38:05.569Z,10.48
2023-05-23T04:39:08.435Z,11.23
2023-05-23T04:40:11.298Z,9.75
2023-05-23T04:41:16.705Z,10.00
2023-05-23T04:42:18.589Z,10.30
2023-05-23T04:43:21.945Z,10.20
2023-05-23T04:44:23.875Z,10.23
2023-05-23T04:45:26.681Z,10.82
2023-05-23T04:46:28.979Z,9.80
2023-05-23T04:47:37.038Z,10.45
2023-05-23T04:48:39.387Z,10.45
2023-05-23T04:49:42.273Z,10.15
2023-05-23T04:50:47.440Z,10.68
2023-05-23T04:51:51.757Z,9.65
2023-05-23T04:52:53.637Z,11.15
2023-05-23T04:53:56.799Z,10.63
2023-05-23T04:54:58.872Z,10.57
2023-05-23T04:56:02.509Z,10.40
2023-05-23T04:57:04.720Z,10.38
2023-05-23T04:58:07.936Z,11.10
2023-05-23T04:59:11.301Z,9.45
2023-05-23T05:00:15.490Z,10.23
2023-05-23T05:01:17.456Z,9.90
2023-05-23T05:02:20.437Z,10.93
2023-05-23T05:03:25.031Z,10.43
2023-05-23T05:04:27.885Z,10.52
2023-05-23T05:05:29.845Z,11.27
2023-05-23T05:06:33.498Z,11.57
2023-05-23T05:07:36.914Z,11.05
2023-05-23T05:08:40.734Z,10.25
2023-05-23T05:09:42.597Z,10.23
2023-05-23T05:10:45.418Z,10.80
2023-05-23T05:11:47.685Z,10.82
2023-05-23T05:12:50.518Z,10.32
2023-05-23T05:13:52.353Z,10.90
2023-05-23T05:14:55.445Z,10.48
2023-05-23T05:15:57.303Z,11.30
2023-05-23T05:17:03.055Z,10.45
2023-05-23T05:18:05.233Z,10.02
2023-05-23T05:19:08.185Z,10.93
2023-05-23T05:20:11.190Z,9.50
2023-05-23T05:21:14.003Z,10.15
2023-05-23T05:22:16.853Z,11.88
2023-05-23T05:23:20.098Z,10.77
2023-05-23T05:24:22.900Z,11.43
2023-05-23T05:25:25.029Z,11.18
2023-05-23T05:26:28.143Z,11.02
2023-05-23T05:27:30.030Z,11.30
2023-05-23T05:28:32.972Z,10.45
2023-05-23T05:29:35.365Z,11.45
2023-05-23T05:30:38.758Z,11.95
2023-05-23T05:31:41.121Z,11.73
2023-05-23T05:32:46.312Z,10.15
2023-05-23T05:34:13.230Z,10.38
2023-05-23T05:35:16.921Z,10.48
2023-05-23T05:36:20.758Z,10.80
2023-05-23T05:37:23.667Z,11.10
2023-05-23T05:38:26.913Z,10.52
2023-05-23T05:39:29.712Z,10.98
2023-05-23T05:40:32.139Z,9.77
2023-05-23T05:41:34.940Z,11.27
2023-05-23T05:42:36.827Z,11.93
2023-05-23T05:43:39.649Z,11.07
2023-05-23T05:44:42.518Z,10.70
2023-05-23T05:45:44.403Z,11.68
2023-05-23T05:46:48.650Z,9.98
2023-05-23T05:47:50.801Z,11.15
2023-05-23T05:48:53.648Z,9.45
2023-05-23T05:49:55.545Z,11.68
2023-05-23T05:51:01.024Z,10.57
2023-05-23T05:52:02.988Z,11.00
2023-05-23T05:53:06.005Z,9.45
2023-05-23T05:54:09.364Z,10.35
2023-05-23T05:55:12.698Z,10.55
2023-05-23T05:56:14.604Z,10.00
2023-05-23T05:57:17.432Z,10.70
2023-05-23T05:58:19.289Z,10.18
2023-05-23T05:59:22.136Z,8.70
2023-05-23T06:00:25.226Z,7.47
2023-05-23T06:01:28.116Z,7.75
2023-05-23T06:02:30.058Z,8.30
2023-05-23T06:03:33.828Z,10.07
2023-05-23T06:04:35.873Z,8.25
2023-05-23T06:05:39.439Z,8.15
2023-05-23T06:06:41.311Z,7.93
2023-05-23T06:07:44.952Z,9.00
2023-05-23T06:08:47.795Z,9.32
2023-05-23T06:09:51.105Z,8.80
2023-05-23T06:10:53.912Z,10.38
2023-05-23T06:11:55.748Z,9.68
2023-05-23T06:12:59.906Z,9.13
2023-05-23T06:14:01.770Z,8.57
2023-05-23T06:15:05.231Z,8.60
2023-05-23T06:16:07.299Z,9.27
2023-05-23T06:17:10.209Z,9.65
2023-05-23T06:18:12.134Z,9.40
2023-05-23T06:19:15.040Z,9.57
2023-05-23T06:20:18.046Z,8.77
2023-05-23T06:21:20.056Z,9.15
2023-05-23T06:22:22.953Z,9.18
2023-05-23T06:23:24.934Z,8.50
2023-05-23T06:24:27.789Z,7.75
2023-05-23T06:25:31.020Z,7.47
2023-05-23T06:26:33.941Z,6.80
2023-05-23T06:27:35.823Z,7.30
2023-05-23T06:28:39.743Z,7.43
2023-05-23T06:29:41.640Z,10.85
2023-05-23T06:30:44.636Z,6.60
2023-05-23T06:31:47.462Z,7.00
2023-05-23T06:32:49.380Z,7.90
2023-05-23T06:33:52.237Z,6.03
2023-05-23T06:34:54.155Z,6.47
2023-05-23T06:35:57.303Z,6.28
2023-05-23T06:36:59.287Z,7.30
2023-05-23T06:38:02.159Z,7.22
2023-05-23T06:39:04.292Z,6.30
2023-05-23T06:40:07.838Z,6.78
2023-05-23T06:41:17.072Z,7.90
2023-05-23T06:42:20.068Z,6.55
2023-05-23T06:43:21.930Z,8.80
2023-05-23T06:44:24.745Z,7.15
2023-05-23T06:45:30.304Z,9.30
2023-05-23T06:46:33.630Z,9.23
2023-05-23T06:47:35.517Z,7.45
2023-05-23T06:48:38.346Z,7.63
2023-05-23T06:49:40.262Z,7.03
2023-05-23T06:50:43.232Z,6.63
2023-05-23T06:51:46.339Z,7.35
2023-05-23T06:52:48.538Z,6.93
2023-05-23T06:53:51.404Z,6.75
2023-05-23T06:54:53.327Z,6.30
2023-05-23T06:55:56.213Z,7.80
2023-05-23T06:56:59.529Z,6.40
2023-05-23T06:58:04.142Z,6.50
2023-05-23T06:59:06.118Z,7.18
2023-05-23T07:00:10.144Z,7.40
2023-05-23T07:01:12.125Z,7.25
2023-05-23T07:02:14.958Z,7.00
2023-05-23T07:03:17.171Z,6.45
2023-05-23T07:04:20.144Z,7.72
2023-05-23T07:05:22.158Z,7.63
2023-05-23T07:06:25.182Z,5.95
2023-05-23T07:07:27.037Z,6.22
2023-05-23T07:08:30.176Z,6.65
2023-05-23T07:09:33.018Z,6.32
2023-05-23T07:10:35.344Z,6.78
2023-05-23T07:11:39.446Z,8.60
2023-05-23T07:12:42.960Z,7.72
2023-05-23T07:13:46.322Z,5.82
2023-05-23T07:14:48.170Z,7.70
2023-05-23T07:15:51.063Z,6.72
2023-05-23T07:16:53.911Z,6.22
2023-05-23T07:17:56.031Z,6.60
2023-05-23T07:18:58.939Z,6.10
2023-05-23T07:20:01.348Z,7.07
2023-05-23T07:21:04.400Z,6.80
2023-05-23T07:22:07.310Z,5.38
2023-05-23T07:23:09.161Z,7.40
2023-05-23T07:24:12.032Z,6.53
2023-05-23T07:25:14.898Z,5.80
2023-05-23T07:26:16.977Z,6.68
2023-05-23T07:27:19.862Z,6.70
2023-05-23T07:28:23.144Z,7.05
2023-05-23T07:29:26.264Z,5.72
2023-05-23T07:30:28.148Z,6.85
2023-05-23T07:31:31.036Z,6.00
2023-05-23T07:32:34.658Z,6.85
2023-05-23T07:33:37.561Z,6.90
2023-05-23T07:34:39.605Z,7.88
2023-05-23T07:35:42.687Z,6.25
2023-05-23T07:36:44.663Z,6.53
2023-05-23T07:37:48.999Z,5.80
2023-05-23T07:38:53.226Z,6.35
2023-05-23T07:39:56.333Z,5.45
2023-05-23T07:41:10.701Z,6.40
2023-05-23T07:42:14.179Z,6.93
2023-05-23T07:43:17.092Z,8.90
2023-05-23T07:44:23.176Z,5.50
2023-05-23T07:45:27.668Z,5.85
2023-05-23T07:46:29.605Z,6.22
2023-05-23T07:47:32.544Z,5.85
2023-05-23T07:48:35.661Z,5.70
2023-05-23T07:49:38.521Z,6.35
2023-05-23T07:50:40.913Z,7.05
2023-05-23T07:51:44.156Z,6.60
2023-05-23T07:52:46.646Z,6.95
2023-05-23T07:53:49.514Z,6.13
2023-05-23T07:54:52.363Z,6.32
2023-05-23T07:55:55.243Z,5.50
2023-05-23T07:56:58.094Z,6.70
2023-05-23T07:58:01.461Z,7.05
2023-05-23T07:59:03.325Z,7.38
2023-05-23T08:00:10.113Z,6.60
2023-05-23T08:01:11.995Z,6.45
2023-05-23T08:02:14.895Z,5.85
2023-05-23T08:03:19.076Z,6.10
2023-05-23T08:04:21.373Z,6.70
2023-05-23T08:05:26.459Z,5.50
2023-05-23T08:06:29.296Z,5.95
2023-05-23T08:07:32.164Z,6.00
2023-05-23T08:08:35.021Z,5.90
2023-05-23T08:09:37.002Z,6.55
2023-05-23T08:10:40.174Z,5.60
2023-05-23T08:11:42.403Z,5.43
2023-05-23T08:12:45.318Z,5.82
2023-05-23T08:13:48.270Z,5.05
2023-05-23T08:14:52.386Z,6.10
2023-05-23T08:15:56.919Z,5.15
2023-05-23T08:16:59.054Z,6.40
2023-05-23T08:18:02.139Z,6.30
2023-05-23T08:19:05.476Z,5.80
2023-05-23T08:20:10.335Z,5.45
2023-05-23T08:21:13.182Z,5.10
2023-05-23T08:22:15.123Z,6.32
2023-05-23T08:23:18.864Z,5.50
2023-05-23T08:24:20.802Z,5.20
2023-05-23T08:25:24.549Z,6.15
2023-05-23T08:26:30.423Z,5.88
2023-05-23T08:27:33.857Z,6.10
2023-05-23T08:28:36.728Z,5.63
2023-05-23T08:29:39.563Z,5.30
2023-05-23T08:30:42.767Z,6.00
2023-05-23T08:31:47.247Z,5.53
2023-05-23T08:32:50.369Z,5.35
2023-05-23T08:33:53.231Z,7.10
2023-05-23T08:34:56.164Z,5.47
2023-05-23T08:35:59.023Z,5.95
2023-05-23T08:37:01.181Z,5.43
2023-05-23T08:38:09.235Z,5.10
2023-05-23T08:39:14.116Z,6.35
2023-05-23T08:40:20.720Z,5.15
2023-05-23T08:41:27.843Z,6.00
2023-05-23T08:42:29.822Z,4.82
2023-05-23T08:43:32.797Z,5.68
2023-05-23T08:44:34.664Z,5.90
2023-05-23T08:45:37.580Z,5.55
2023-05-23T08:46:46.640Z,5.75
2023-05-23T08:47:52.319Z,6.40
2023-05-23T08:48:56.605Z,5.38
2023-05-23T08:49:59.973Z,5.90
2023-05-23T08:51:04.505Z,4.85
2023-05-23T08:52:13.060Z,5.30
2023-05-23T08:53:20.222Z,6.15
2023-05-23T08:54:22.451Z,5.40
2023-05-23T08:55:27.787Z,5.38
2023-05-23T08:56:30.832Z,5.72
2023-05-23T08:57:34.129Z,5.47
2023-05-23T08:58:38.827Z,6.10
2023-05-23T08:59:41.673Z,5.53
2023-05-23T09:00:44.949Z,5.30
2023-05-23T09:01:48.758Z,4.47
2023-05-23T09:02:54.550Z,4.72
2023-05-23T09:04:00.306Z,5.75
2023-05-23T09:05:02.565Z,5.82
2023-05-23T09:06:07.159Z,6.18
2023-05-23T09:07:12.565Z,4.72
2023-05-23T09:08:15.326Z,5.20
2023-05-23T09:09:18.352Z,5.00
2023-05-23T09:10:20.399Z,5.43
2023-05-23T09:11:24.274Z,5.45
2023-05-23T09:12:26.200Z,5.40
2023-05-23T09:13:29.652Z,6.05
2023-05-23T09:14:32.491Z,5.57
2023-05-23T09:15:35.321Z,6.15
2023-05-23T09:16:38.159Z,6.68
2023-05-23T09:17:41.388Z,5.80
2023-05-23T09:18:46.262Z,5.30
2023-05-23T09:19:48.450Z,5.20
2023-05-23T09:20:51.401Z,6.05
2023-05-23T09:21:54.716Z,6.45
2023-05-23T09:22:57.553Z,5.90
2023-05-23T09:23:59.562Z,5.38
2023-05-23T09:25:03.106Z,5.03
2023-05-23T09:26:06.138Z,4.80
2023-05-23T09:27:09.558Z,5.85
2023-05-23T09:28:11.706Z,5.07
2023-05-23T09:29:14.542Z,4.60
2023-05-23T09:30:17.758Z,5.30
2023-05-23T09:31:20.698Z,5.45
2023-05-23T09:32:22.744Z,5.00
2023-05-23T09:33:30.963Z,5.38
2023-05-23T09:34:34.194Z,6.57
2023-05-23T09:35:37.021Z,5.47
2023-05-23T09:36:41.534Z,5.28
2023-05-23T09:37:46.821Z,5.57
2023-05-23T09:38:48.880Z,4.95
2023-05-23T09:39:51.809Z,6.22
2023-05-23T09:40:56.157Z,6.00
2023-05-23T09:42:00.568Z,6.00
2023-05-23T09:43:05.013Z,5.32
2023-05-23T09:44:08.963Z,6.20
2023-05-23T09:45:12.702Z,5.05
2023-05-23T09:46:14.618Z,6.30
2023-05-23T09:47:17.648Z,5.05
2023-05-23T09:48:19.566Z,5.38
2023-05-23T09:49:22.839Z,5.55
2023-05-23T09:50:31.011Z,4.63
2023-05-23T09:51:33.987Z,5.57
2023-05-23T09:52:38.315Z,4.93
2023-05-23T09:53:42.239Z,5.95
2023-05-23T09:54:46.518Z,5.63
2023-05-23T09:55:50.999Z,5.18
2023-05-23T09:56:56.115Z,5.65
2023-05-23T09:57:59.769Z,5.97
2023-05-23T09:59:09.092Z,6.43
2023-05-23T10:00:14.057Z,6.97
2023-05-23T10:01:17.841Z,6.18
2023-05-23T10:02:55.368Z,6.40
2023-05-23T10:04:00.483Z,6.53
2023-05-23T10:05:04.277Z,6.60
2023-05-23T10:06:14.058Z,7.60
2023-05-23T10:07:23.375Z,6.63
2023-05-23T10:08:31.402Z,7.35
2023-05-23T10:09:37.597Z,5.65
2023-05-23T10:11:27.594Z,6.60
2023-05-23T10:12:48.336Z,5.30
2023-05-23T10:13:53.647Z,6.20
2023-05-23T10:14:59.160Z,5.15
2023-05-23T10:16:08.081Z,6.00
2023-05-23T10:17:15.793Z,5.60
2023-05-23T10:18:30.552Z,6.68
2023-05-23T10:19:38.847Z,5.75
2023-05-23T10:20:44.329Z,6.50
2023-05-23T10:21:54.412Z,5.75
2023-05-23T10:22:57.732Z,5.68
2023-05-23T10:24:01.338Z,7.03
2023-05-23T10:25:05.302Z,6.35
2023-05-23T10:26:07.948Z,7.63
2023-05-23T10:27:11.251Z,6.22
2023-05-23T10:28:14.767Z,6.53
2023-05-23T10:29:17.610Z,6.03
2023-05-23T10:30:20.061Z,6.35
2023-05-23T10:31:23.903Z,7.05
2023-05-23T10:32:28.000Z,7.00
2023-05-23T10:33:34.959Z,5.55
2023-05-23T10:34:42.789Z,6.50
2023-05-23T10:35:55.807Z,6.40
2023-05-23T10:37:01.662Z,6.15
2023-05-23T10:38:13.778Z,6.40
2023-05-23T10:39:24.308Z,5.72
2023-05-23T10:40:35.627Z,5.80
2023-05-23T10:41:45.929Z,6.25
2023-05-23T10:42:56.788Z,6.07
2023-05-23T10:44:07.229Z,6.50
2023-05-23T10:45:17.636Z,6.30
2023-05-23T10:46:22.608Z,6.72
2023-05-23T10:47:28.677Z,6.40
2023-05-23T10:48:36.289Z,6.40
2023-05-23T10:49:39.144Z,4.85
2023-05-23T10:50:42.447Z,4.85
2023-05-23T10:51:51.204Z,4.75
2023-05-23T10:52:55.859Z,6.05
2023-05-23T10:53:58.980Z,6.78
2023-05-23T10:55:00.845Z,6.05
2023-05-23T10:56:06.288Z,5.47
2023-05-23T10:57:10.971Z,7.00
2023-05-23T10:58:19.708Z,6.40
2023-05-23T10:59:22.375Z,4.95
2023-05-23T11:00:25.769Z,5.15
2023-05-23T11:01:28.751Z,6.00
2023-05-23T11:02:30.818Z,6.43
2023-05-23T11:03:38.649Z,5.35
2023-05-23T11:04:41.546Z,5.95
2023-05-23T11:05:52.665Z,6.30
2023-05-23T11:06:56.923Z,5.55
2023-05-23T11:08:11.694Z,5.18
2023-05-23T11:09:18.937Z,5.60
2023-05-23T11:10:20.845Z,5.28
2023-05-23T11:11:23.644Z,6.25
2023-05-23T11:12:37.903Z,7.10
2023-05-23T11:13:59.991Z,5.40
2023-05-23T11:15:03.102Z,5.75
2023-05-23T11:16:27.849Z,5.82
2023-05-23T11:17:34.744Z,5.53
2023-05-23T11:18:39.001Z,5.80
2023-05-23T11:19:55.413Z,6.72
2023-05-23T11:21:00.806Z,4.57
2023-05-23T11:22:03.655Z,5.18
2023-05-23T11:23:10.476Z,5.60
2023-05-23T11:24:12.533Z,5.50
2023-05-23T11:25:17.017Z,6.30
2023-05-23T11:26:31.888Z,6.07
2023-05-23T11:27:37.706Z,6.38
2023-05-23T11:28:58.725Z,5.00
2023-05-23T11:30:04.139Z,5.70
2023-05-23T11:31:08.572Z,5.85
2023-05-23T11:32:16.034Z,5.63
2023-05-23T11:33:20.993Z,6.07
2023-05-23T11:34:23.236Z,6.00
2023-05-23T11:35:26.661Z,6.18
2023-05-23T11:36:29.991Z,5.22
2023-05-23T11:37:32.691Z,5.70
2023-05-23T11:38:37.001Z,5.75
2023-05-23T11:39:40.387Z,5.78
2023-05-23T11:40:45.159Z,4.90
2023-05-23T11:41:58.808Z,5.60
2023-05-23T11:43:03.995Z,5.32
2023-05-23T11:44:12.172Z,6.43
2023-05-23T11:45:15.073Z,6.82
2023-05-23T11:46:18.309Z,5.10
2023-05-23T11:47:20.410Z,5.65
2023-05-23T11:48:23.248Z,6.47
2023-05-23T11:49:25.110Z,5.90
2023-05-23T11:50:27.944Z,5.78
2023-05-23T11:51:29.875Z,5.20
2023-05-23T11:52:33.992Z,5.53
2023-05-23T11:53:38.569Z,5.70
2023-05-23T11:54:41.742Z,5.25
2023-05-23T11:55:53.045Z,4.80
2023-05-23T11:56:55.994Z,5.28
2023-05-23T11:57:59.036Z,5.63
2023-05-23T11:59:00.940Z,5.32
2023-05-23T12:00:04.404Z,5.13
2023-05-23T12:01:08.950Z,4.90
2023-05-23T12:02:10.849Z,4.90
2023-05-23T12:03:13.936Z,4.88
2023-05-23T12:04:16.987Z,5.15
2023-05-23T12:05:19.153Z,5.22
2023-05-23T12:06:24.399Z,6.07
2023-05-23T12:07:26.384Z,4.50
2023-05-23T12:08:29.256Z,5.93
2023-05-23T12:09:32.599Z,5.28
2023-05-23T12:10:35.804Z,5.30
2023-05-23T12:11:37.792Z,5.53
2023-05-23T12:12:42.904Z,4.70
2023-05-23T12:13:44.909Z,5.25
2023-05-23T12:14:47.818Z,5.28
2023-05-23T12:15:51.623Z,4.97
2023-05-23T12:16:57.723Z,5.95
2023-05-23T12:17:59.733Z,6.25
2023-05-23T12:19:04.609Z,5.10
2023-05-23T12:20:09.007Z,4.40
2023-05-23T12:21:10.963Z,5.70
2023-05-23T12:22:13.839Z,5.25
2023-05-23T12:23:19.379Z,5.20
2023-05-23T12:24:23.193Z,5.10
2023-05-23T12:25:33.034Z,4.60
2023-05-23T12:26:47.592Z,5.07
2023-05-23T12:27:50.423Z,6.05
2023-05-23T12:28:52.325Z,5.45
2023-05-23T12:30:06.434Z,4.63
2023-05-23T12:31:13.128Z,5.10
2023-05-23T12:32:15.147Z,5.65
2023-05-23T12:33:20.741Z,5.40
2023-05-23T12:34:22.722Z,5.40
2023-05-23T12:35:27.097Z,5.45
2023-05-23T12:36:33.002Z,5.72
2023-05-23T12:37:34.964Z,4.18
2023-05-23T12:38:40.530Z,5.30
2023-05-23T12:39:45.559Z,5.18
2023-05-23T12:41:08.174Z,5.13
2023-05-23T12:42:11.373Z,5.88
2023-05-23T12:43:16.901Z,4.88
2023-05-23T12:44:18.910Z,4.88
2023-05-23T12:45:23.192Z,4.80
2023-05-23T12:46:26.953Z,5.38
2023-05-23T12:47:30.183Z,4.97
2023-05-23T12:48:33.541Z,5.10
2023-05-23T12:49:37.118Z,4.40
2023-05-23T12:50:40.044Z,4.68
2023-05-23T12:51:41.949Z,4.28
2023-05-23T12:52:44.921Z,5.45
2023-05-23T12:53:47.040Z,4.88
2023-05-23T12:54:49.868Z,5.28
2023-05-23T12:55:53.051Z,4.82
2023-05-23T12:56:56.170Z,5.00
2023-05-23T12:57:59.016Z,4.53
2023-05-23T12:59:01.996Z,5.75
2023-05-23T13:00:06.439Z,5.35
2023-05-23T13:01:08.460Z,5.35
2023-05-23T13:02:11.325Z,4.93
2023-05-23T13:03:13.179Z,4.40
2023-05-23T13:04:16.485Z,4.78
2023-05-23T13:05:18.587Z,4.93
2023-05-23T13:06:21.655Z,4.60
2023-05-23T13:07:23.865Z,4.57
2023-05-23T13:08:27.367Z,4.78
2023-05-23T13:09:30.289Z,4.75
2023-05-23T13:10:34.215Z,5.05
2023-05-23T13:11:38.385Z,4.47
2023-05-23T13:12:40.306Z,4.72
2023-05-23T13:13:43.447Z,4.90
2023-05-23T13:14:45.341Z,4.80
2023-05-23T13:15:50.533Z,5.10
2023-05-23T13:16:52.904Z,4.80
2023-05-23T13:17:55.945Z,4.70
2023-05-23T13:19:00.648Z,4.43
2023-05-23T13:20:04.948Z,4.97
2023-05-23T13:21:07.898Z,4.80
2023-05-23T13:22:10.502Z,4.80
2023-05-23T13:23:13.402Z,5.95
2023-05-23T13:24:16.247Z,5.00
2023-05-23T13:25:18.254Z,5.38
2023-05-23T13:26:21.791Z,5.82
2023-05-23T13:27:25.051Z,5.30
2023-05-23T13:28:27.855Z,5.60
2023-05-23T13:29:29.726Z,5.30
2023-05-23T13:30:32.670Z,4.90
2023-05-23T13:31:34.559Z,5.35
2023-05-23T13:32:37.512Z,5.15
2023-05-23T13:33:39.590Z,5.03
2023-05-23T13:34:43.606Z,4.95
2023-05-23T13:35:45.544Z,5.35
2023-05-23T13:36:48.335Z,5.15
2023-05-23T13:37:50.855Z,4.90
2023-05-23T13:38:53.733Z,4.68
2023-05-23T13:39:55.722Z,4.70
2023-05-23T13:40:58.563Z,4.57
2023-05-23T13:42:00.464Z,4.70
2023-05-23T13:43:04.712Z,5.00
2023-05-23T13:44:06.565Z,4.97
2023-05-23T13:45:12.417Z,4.47
2023-05-23T13:46:15.388Z,4.97
2023-05-23T13:47:18.282Z,4.75
2023-05-23T13:48:21.149Z,4.53
2023-05-23T13:49:23.086Z,4.70
2023-05-23T13:50:25.937Z,4.55
2023-05-23T13:51:27.821Z,4.95
2023-05-23T13:52:30.859Z,4.90
2023-05-23T13:53:33.664Z,4.75
2023-05-23T13:54:35.934Z,4.38
2023-05-23T13:55:38.791Z,4.60
2023-05-23T13:56:41.641Z,5.00
2023-05-23T13:57:43.556Z,4.40
2023-05-23T13:58:47.744Z,4.88
2023-05-23T13:59:49.641Z,6.78
2023-05-23T14:00:52.485Z,4.63
2023-05-23T14:01:54.483Z,5.30
2023-05-23T14:03:02.473Z,4.55
2023-05-23T14:04:07.006Z,5.00
2023-05-23T14:05:10.013Z,4.60
2023-05-23T14:06:13.286Z,4.53
2023-05-23T14:07:15.201Z,4.70